Time;durP1;ratioP1;P1;durP2;ratioP2;P2;SDS_P1;SDS_P2;PMS_P1;PMS_P2;Temp;Humidity;BMP_temperature;BMP_pressure;BME280_temperature;BME280_humidity;BME280_pressure;Samples;Min_cycle;Max_cycle;Signal;HPM_P1;HPM_P2
2022/03/21 00:01:18;;;;;;;29.15;20.40;;;;;;;5.38;53.16;101674.34;4991720;28;20072;-79
2022/03/21 00:03:43;;;;;;;33.08;20.70;;;;;;;5.28;53.22;101673.84;4988334;28;20035;-77
2022/03/21 00:06:10;;;;;;;29.33;19.17;;;;;;;5.23;53.87;101680.19;4990993;28;20100;-77
2022/03/21 00:08:35;;;;;;;28.38;18.65;;;;;;;5.18;53.75;101677.75;4975445;28;20038;-78
2022/03/21 00:11:01;;;;;;;30.38;19.40;;;;;;;5.14;54.28;101675.28;4991462;28;20042;-78
2022/03/21 00:13:28;;;;;;;30.42;20.80;;;;;;;5.03;54.51;101678.28;4991254;28;20439;-78
2022/03/21 00:15:55;;;;;;;33.78;21.90;;;;;;;4.97;55.10;101673.28;4990249;28;20074;-79
2022/03/21 00:18:23;;;;;;;29.20;20.80;;;;;;;4.83;55.17;101665.91;4971336;28;20045;-82
2022/03/21 00:20:53;;;;;;;32.08;20.48;;;;;;;4.79;55.59;101673.94;4988830;28;20038;-79
2022/03/21 00:23:20;;;;;;;30.13;20.80;;;;;;;4.78;55.75;101672.22;4991451;28;20116;-80
2022/03/21 00:25:46;;;;;;;30.27;19.55;;;;;;;4.61;56.58;101675.44;4993534;28;20093;-80
2022/03/21 00:28:12;;;;;;;27.65;18.50;;;;;;;4.57;56.41;101678.22;4994378;28;20108;-81
2022/03/21 00:30:41;;;;;;;32.55;20.00;;;;;;;4.54;56.78;101680.00;4975631;28;20068;-81
2022/03/21 00:33:07;;;;;;;29.77;20.42;;;;;;;4.58;57.01;101682.53;4998458;28;20102;-79
2022/03/21 00:35:33;;;;;;;28.00;19.35;;;;;;;4.54;56.92;101687.88;4992225;28;20030;-80
2022/03/21 00:37:58;;;;;;;31.75;19.55;;;;;;;4.55;57.07;101696.56;5009252;28;20098;-80
2022/03/21 00:40:29;;;;;;;31.70;19.27;;;;;;;4.57;57.10;101693.91;5010470;28;20117;-81
2022/03/21 00:42:56;;;;;;;28.25;19.70;;;;;;;4.56;57.13;101698.28;5006837;28;20038;-81
2022/03/21 00:45:26;;;;;;;29.27;19.42;;;;;;;4.47;57.84;101683.78;5000165;28;20040;-80
2022/03/21 00:47:54;;;;;;;30.13;20.42;;;;;;;4.43;57.93;101696.97;4998332;28;20141;-80
2022/03/21 00:50:23;;;;;;;30.27;20.10;;;;;;;4.39;58.92;101693.63;5001812;28;20106;-80
2022/03/21 00:52:50;;;;;;;29.60;20.25;;;;;;;4.32;58.61;101684.28;5005407;28;20035;-79
2022/03/21 00:55:18;;;;;;;35.45;20.23;;;;;;;4.26;59.24;101689.69;5006325;28;20026;-81
2022/03/21 00:57:44;;;;;;;30.70;20.83;;;;;;;4.13;59.61;101689.25;4987334;28;20023;-81
2022/03/21 01:00:24;;;;;;;31.90;20.85;;;;;;;4.12;59.80;101697.16;5012097;28;20078;-79
2022/03/21 01:02:51;;;;;;;33.85;20.60;;;;;;;4.06;60.42;101692.97;5011250;28;20025;-80
2022/03/21 01:05:17;;;;;;;29.05;19.40;;;;;;;4.07;59.89;101693.81;5007360;28;20150;-78
2022/03/21 01:07:43;;;;;;;30.25;20.13;;;;;;;4.05;60.42;101698.25;5000378;28;20033;-82
2022/03/21 01:10:16;;;;;;;31.08;19.77;;;;;;;4.01;60.56;101696.63;4995274;28;20046;-81
2022/03/21 01:12:42;;;;;;;31.30;19.52;;;;;;;4.02;60.75;101682.66;4984044;28;20030;-81
2022/03/21 01:15:11;;;;;;;32.58;20.95;;;;;;;3.90;61.02;101686.53;4990758;28;20597;-80
2022/03/21 01:17:37;;;;;;;29.63;20.50;;;;;;;3.76;61.85;101688.75;4987214;28;20042;-81
2022/03/21 01:20:04;;;;;;;34.03;22.17;;;;;;;3.76;62.18;101680.03;4990667;28;20441;-80
2022/03/21 01:22:29;;;;;;;32.80;21.00;;;;;;;3.79;62.31;101685.16;4991086;28;20027;-81
2022/03/21 01:24:55;;;;;;;31.33;21.02;;;;;;;3.79;61.95;101682.53;4991050;28;20045;-79
2022/03/21 01:27:21;;;;;;;31.60;20.90;;;;;;;3.84;62.04;101680.63;4990993;28;20081;-81
2022/03/21 01:29:47;;;;;;;31.58;20.40;;;;;;;3.81;62.13;101680.75;4990091;28;20038;-80
2022/03/21 01:32:13;;;;;;;34.92;20.80;;;;;;;3.79;62.05;101677.31;4990368;28;20053;-79
2022/03/21 01:34:39;;;;;;;34.83;21.55;;;;;;;3.76;61.87;101677.44;4990750;28;20034;-80
2022/03/21 01:37:05;;;;;;;36.85;22.13;;;;;;;3.71;62.25;101675.81;4990002;28;20030;-80
2022/03/21 01:39:30;;;;;;;36.10;21.63;;;;;;;3.76;61.99;101683.50;4993309;28;20041;-80
2022/03/21 01:41:56;;;;;;;33.28;20.75;;;;;;;3.78;62.21;101681.69;4994030;28;20383;-80
2022/03/21 01:44:22;;;;;;;34.10;22.02;;;;;;;3.82;62.14;101682.47;4998947;28;20118;-80
2022/03/21 01:46:47;;;;;;;30.13;20.08;;;;;;;3.81;62.10;101676.38;4995303;28;20473;-79
2022/03/21 01:49:13;;;;;;;31.02;21.60;;;;;;;3.79;62.25;101677.31;4994966;28;20042;-79
2022/03/21 01:51:42;;;;;;;30.45;20.42;;;;;;;3.79;62.27;101677.31;4995541;28;20030;-79
2022/03/21 01:56:52;;;;;;;34.85;21.42;;;;;;;3.72;62.65;101667.06;4988826;28;20062;-79
2022/03/21 01:59:21;;;;;;;30.75;20.80;;;;;;;3.68;62.71;101660.25;4993149;28;20113;-79
2022/03/21 02:01:47;;;;;;;32.25;21.05;;;;;;;3.71;62.86;101665.34;4993455;28;20053;-80
2022/03/21 02:04:13;;;;;;;35.70;21.35;;;;;;;3.61;63.31;101661.34;4993951;28;20495;-79
2022/03/21 02:06:39;;;;;;;34.47;20.98;;;;;;;3.61;63.11;101663.94;4995058;28;20057;-82
2022/03/21 02:09:09;;;;;;;34.00;21.30;;;;;;;3.59;63.56;101663.13;4977457;28;20044;-80
2022/03/21 02:11:36;;;;;;;35.38;21.73;;;;;;;3.56;64.19;101659.75;4994770;28;20054;-81
2022/03/21 02:14:05;;;;;;;40.97;21.95;;;;;;;3.54;64.43;101656.34;4976533;28;20030;-81
2022/03/21 02:16:32;;;;;;;39.00;22.65;;;;;;;3.52;64.51;101648.56;4995749;28;20034;-80
2022/03/21 02:19:01;;;;;;;37.65;21.60;;;;;;;3.52;64.57;101650.31;4994505;28;20133;-80
2022/03/21 02:21:29;;;;;;;32.22;20.80;;;;;;;3.40;65.16;101648.09;4991783;28;20077;-79
2022/03/21 02:24:08;;;;;;;35.13;22.40;;;;;;;3.36;65.53;101641.25;4993580;28;20106;-80
2022/03/21 02:26:36;;;;;;;36.53;22.50;;;;;;;3.38;65.26;101640.31;4993431;28;20098;-80
2022/03/21 02:29:03;;;;;;;42.33;22.63;;;;;;;3.42;65.57;101641.03;4993590;28;20376;-81
2022/03/21 02:31:32;;;;;;;36.55;22.10;;;;;;;3.37;65.88;101643.81;4994512;28;20053;-81
2022/03/21 02:33:59;;;;;;;38.72;23.45;;;;;;;3.41;65.73;101635.00;4994325;28;20053;-81
2022/03/21 02:36:27;;;;;;;34.67;21.52;;;;;;;3.50;65.45;101634.72;4993830;28;20104;-80
2022/03/21 02:38:56;;;;;;;35.20;22.10;;;;;;;3.62;65.03;101634.31;4992977;28;20532;-80
2022/03/21 02:41:22;;;;;;;39.25;23.00;;;;;;;3.69;64.68;101630.63;4976480;28;20034;-80
2022/03/21 02:43:55;;;;;;;40.13;22.65;;;;;;;3.71;65.02;101634.03;4992899;28;20399;-81
2022/03/21 02:46:21;;;;;;;35.80;22.48;;;;;;;3.78;64.76;101631.22;4992415;28;20026;-80
2022/03/21 02:48:48;;;;;;;39.20;22.33;;;;;;;3.82;64.34;101636.31;4992728;28;20057;-80
2022/03/21 02:51:14;;;;;;;34.00;21.77;;;;;;;3.76;64.42;101631.28;4992803;28;20037;-81
2022/03/21 02:53:41;;;;;;;39.03;22.35;;;;;;;3.70;64.35;101637.56;4992753;28;20720;-81
2022/03/21 02:56:07;;;;;;;35.78;22.20;;;;;;;3.61;65.00;101632.63;4988566;28;20065;-80
2022/03/21 02:58:33;;;;;;;36.67;22.42;;;;;;;3.61;64.83;101626.53;4974954;28;20364;-80
2022/03/21 03:01:14;;;;;;;33.50;21.52;;;;;;;3.62;65.41;101623.03;4992541;28;20109;-80
2022/03/21 03:03:40;;;;;;;36.05;20.90;;;;;;;3.62;65.18;101623.88;4989068;28;20031;-80
2022/03/21 03:06:05;;;;;;;31.33;20.60;;;;;;;3.62;65.29;101618.66;4992472;28;20045;-80
2022/03/21 03:08:32;;;;;;;34.88;21.25;;;;;;;3.63;65.35;101624.75;4975509;28;20089;-80
2022/03/21 03:10:58;;;;;;;33.53;21.45;;;;;;;3.63;65.73;101625.59;4992116;28;20061;-80
2022/03/21 03:13:24;;;;;;;34.75;21.70;;;;;;;3.62;65.79;101623.03;4975309;28;20038;-80
2022/03/21 03:15:50;;;;;;;36.03;23.27;;;;;;;3.58;66.19;101632.72;4992400;28;20030;-79
2022/03/21 03:18:16;;;;;;;39.05;22.70;;;;;;;3.48;66.43;101619.97;4992530;28;20038;-80
2022/03/21 03:20:51;;;;;;;37.17;22.77;;;;;;;3.40;66.71;101628.06;4993020;28;20042;-80
2022/03/21 03:23:22;;;;;;;36.63;23.10;;;;;;;3.34;67.18;101627.41;4994179;28;20387;-80
2022/03/21 03:25:54;;;;;;;34.80;21.90;;;;;;;3.30;67.56;101626.63;4995310;28;20031;-79
2022/03/21 03:28:20;;;;;;;35.28;22.40;;;;;;;3.34;67.38;101633.47;4999340;28;20034;-79
2022/03/21 03:30:45;;;;;;;30.13;20.67;;;;;;;3.38;67.29;101624.66;4998670;28;20037;-80
2022/03/21 03:33:11;;;;;;;33.55;21.92;;;;;;;3.43;67.23;101633.19;4992730;28;20052;-80
2022/03/21 03:35:36;;;;;;;37.28;22.05;;;;;;;3.39;67.18;101635.94;4988010;28;20125;-80
2022/03/21 03:38:03;;;;;;;38.75;21.92;;;;;;;3.30;67.58;101632.69;4991688;28;20048;-80
2022/03/21 03:40:28;;;;;;;38.28;22.60;;;;;;;3.22;68.28;101633.84;4992301;28;20041;-79
2022/03/21 03:42:54;;;;;;;34.45;22.00;;;;;;;3.22;68.01;101629.47;4991777;28;20030;-80
2022/03/21 03:45:20;;;;;;;36.50;22.02;;;;;;;3.23;68.26;101635.56;4992556;28;20435;-80
2022/03/21 03:47:46;;;;;;;32.25;22.23;;;;;;;3.15;68.92;101632.31;4992830;28;20050;-80
2022/03/21 03:50:11;;;;;;;35.28;22.52;;;;;;;3.10;68.86;101629.00;4992103;28;20038;-80
2022/03/21 03:52:37;;;;;;;35.47;22.38;;;;;;;3.05;69.40;101625.66;4984513;28;20038;-80
2022/03/21 03:55:03;;;;;;;33.20;21.67;;;;;;;3.04;69.52;101629.16;4992054;28;20050;-80
2022/03/21 03:57:29;;;;;;;31.63;21.83;;;;;;;3.04;70.05;101623.94;4992150;28;20026;-80
2022/03/21 03:59:54;;;;;;;33.67;22.48;;;;;;;3.10;69.78;101629.00;4991789;28;20525;-81
2022/03/21 04:02:20;;;;;;;34.97;22.85;;;;;;;3.12;69.47;101627.19;4992250;28;20057;-81
2022/03/21 04:04:45;;;;;;;39.30;21.63;;;;;;;3.04;69.58;101629.16;4974836;28;20050;-80
2022/03/21 04:07:12;;;;;;;37.20;22.33;;;;;;;2.98;69.89;101630.19;4992331;28;20122;-80
2022/03/21 04:09:37;;;;;;;33.05;22.23;;;;;;;2.95;70.23;101632.88;4984591;28;20487;-80
2022/03/21 04:12:03;;;;;;;31.77;21.90;;;;;;;2.93;70.68;101632.09;4992255;28;20031;-79
2022/03/21 04:14:30;;;;;;;32.40;22.08;;;;;;;2.93;70.90;101636.44;4993173;28;20026;-80
2022/03/21 04:16:56;;;;;;;32.00;22.35;;;;;;;2.93;70.54;101634.69;4998435;28;20061;-80
2022/03/21 04:19:21;;;;;;;37.85;21.83;;;;;;;2.91;71.09;101638.22;5008003;28;20086;-80
2022/03/21 04:21:49;;;;;;;35.78;21.42;;;;;;;2.96;71.27;101636.34;5008927;28;20011;-81
2022/03/21 04:24:14;;;;;;;34.88;22.70;;;;;;;2.99;70.97;101641.50;4993260;28;20033;-80
2022/03/21 04:26:39;;;;;;;31.63;20.98;;;;;;;2.98;71.05;101645.00;4992760;28;20018;-80
2022/03/21 04:29:05;;;;;;;36.90;21.73;;;;;;;2.98;71.08;101645.00;5009580;28;20022;-81
2022/03/21 04:31:32;;;;;;;37.35;22.05;;;;;;;2.97;71.47;101653.72;5009732;28;20074;-81
2022/03/21 04:33:58;;;;;;;36.28;22.50;;;;;;;2.94;71.68;101653.81;5008932;28;20030;-81
2022/03/21 04:36:24;;;;;;;36.13;21.50;;;;;;;2.93;71.92;101649.50;5009937;28;20098;-80
2022/03/21 04:38:49;;;;;;;35.00;22.42;;;;;;;2.93;71.50;101652.09;5008858;28;20079;-80
2022/03/21 04:41:15;;;;;;;35.78;23.98;;;;;;;2.87;71.93;101653.97;5008174;28;20023;-81
2022/03/21 04:43:41;;;;;;;34.55;22.25;;;;;;;2.86;71.98;101662.69;4998240;28;20478;-79
2022/03/21 04:46:06;;;;;;;35.53;22.13;;;;;;;2.89;72.65;101662.59;4991621;28;20041;-81
2022/03/21 04:48:33;;;;;;;35.42;22.40;;;;;;;2.93;72.30;101657.31;4991325;28;20125;-79
2022/03/21 04:50:59;;;;;;;38.58;24.35;;;;;;;2.91;72.44;101664.31;4990849;28;20033;-79
2022/03/21 04:53:24;;;;;;;38.88;23.85;;;;;;;2.92;72.49;101666.03;4993394;28;20421;-79
2022/03/21 04:55:51;;;;;;;33.28;22.30;;;;;;;2.94;72.47;101674.66;4990465;28;20129;-80
2022/03/21 04:58:17;;;;;;;35.13;23.40;;;;;;;2.96;72.42;101672.84;4990785;28;20062;-80
2022/03/21 05:00:44;;;;;;;33.28;21.90;;;;;;;2.99;72.06;101678.00;4994677;28;20065;-79
2022/03/21 05:03:10;;;;;;;35.70;22.25;;;;;;;3.02;72.37;101673.53;4990411;28;20030;-79
2022/03/21 05:05:36;;;;;;;38.28;22.58;;;;;;;3.02;72.26;101670.06;4990345;28;20037;-81
2022/03/21 05:08:03;;;;;;;33.20;22.83;;;;;;;2.93;72.60;101678.16;4990017;28;20467;-80
2022/03/21 05:10:30;;;;;;;31.92;21.92;;;;;;;2.82;73.00;101676.72;4990294;28;20053;-80
2022/03/21 05:12:57;;;;;;;36.28;22.23;;;;;;;2.84;73.03;101680.13;4990017;28;20042;-80
2022/03/21 05:15:22;;;;;;;32.58;22.63;;;;;;;2.83;73.27;101682.75;4990987;28;20883;-79
2022/03/21 05:17:48;;;;;;;31.73;20.73;;;;;;;2.77;73.29;101689.00;4992118;28;20122;-80
2022/03/21 05:20:17;;;;;;;31.83;21.52;;;;;;;2.72;73.84;101690.88;4993752;28;20030;-80
2022/03/21 05:30:57;;;;;;;37.03;22.25;;;;;;;2.70;73.73;101691.84;4992718;28;20042;-80
2022/03/21 05:31:03;;;;;;;33.67;21.73;;;;;;;2.50;74.86;101701.91;4976157;28;20458;-81
2022/03/21 05:36:14;;;;;;;38.10;23.52;;;;;;;2.46;74.63;101711.56;4989433;28;20438;-80
2022/03/21 05:38:39;;;;;;;33.25;21.67;;;;;;;2.39;75.31;101710.00;4993875;28;20116;-80
2022/03/21 05:41:05;;;;;;;40.05;23.88;;;;;;;2.36;75.61;101703.13;4993646;28;20035;-80
2022/03/21 05:43:32;;;;;;;37.15;21.55;;;;;;;2.36;76.53;101707.47;4993574;28;20030;-80
2022/03/21 05:46:01;;;;;;;44.67;24.05;;;;;;;2.34;76.58;101710.13;4993572;28;20039;-79
2022/03/21 05:51:16;;;;;;;43.83;24.02;;;;;;;2.27;77.40;101718.13;4994278;28;20655;-78
2022/03/21 05:53:42;;;;;;;42.92;23.27;;;;;;;2.29;77.35;101726.78;4993665;28;20030;-78
2022/03/21 05:56:08;;;;;;;38.85;23.30;;;;;;;2.26;77.90;101727.69;4988994;28;20105;-79
2022/03/21 05:58:35;;;;;;;40.40;23.30;;;;;;;2.21;78.06;101733.91;4993450;28;20135;-78
2022/03/21 06:01:00;;;;;;;34.83;22.15;;;;;;;2.13;79.01;101726.28;4995644;28;20053;-80
2022/03/21 06:03:26;;;;;;;36.13;20.85;;;;;;;2.04;79.15;101726.50;4996688;28;20419;-80
2022/03/21 06:05:52;;;;;;;37.65;22.65;;;;;;;1.98;79.99;101727.50;4996347;28;20030;-81
2022/03/21 06:08:20;;;;;;;37.95;22.42;;;;;;;1.97;79.72;101731.00;4999141;28;20035;-82
2022/03/21 06:10:46;;;;;;;32.47;21.00;;;;;;;2.01;79.69;101740.44;4995350;28;20030;-79
2022/03/21 06:13:12;;;;;;;35.80;21.45;;;;;;;2.08;79.26;101745.50;4993025;28;20372;-79
2022/03/21 06:15:39;;;;;;;37.35;22.02;;;;;;;2.09;78.95;101739.41;4990264;28;20038;-79
2022/03/21 06:18:12;;;;;;;37.38;22.92;;;;;;;2.10;79.38;101742.00;4993094;28;20080;-77
2022/03/21 06:20:39;;;;;;;36.42;22.05;;;;;;;2.13;79.40;101746.25;4991244;28;20038;-78
2022/03/21 06:23:07;;;;;;;35.63;21.90;;;;;;;2.17;79.66;101747.91;4992685;28;20038;-79
2022/03/21 06:25:33;;;;;;;33.90;21.00;;;;;;;2.13;80.68;101754.06;4992228;28;20084;-80
2022/03/21 06:27:59;;;;;;;35.45;21.50;;;;;;;2.19;79.96;101762.59;4992320;28;20026;-78
2022/03/21 06:30:25;;;;;;;33.13;20.60;;;;;;;2.30;79.04;101764.94;4992698;28;20034;-81
2022/03/21 06:32:53;;;;;;;33.17;22.17;;;;;;;2.31;78.73;101761.44;4993148;28;20026;-81
2022/03/21 06:35:19;;;;;;;42.00;23.60;;;;;;;2.33;78.24;101767.50;4302576;28;10000817;-79
2022/03/21 06:37:44;;;;;;;34.63;22.67;;;;;;;2.38;77.82;101768.22;4989661;28;20490;-79
2022/03/21 06:40:10;;;;;;;37.65;21.73;;;;;;;2.44;77.39;101778.50;4990356;28;20101;-80
2022/03/21 06:42:36;;;;;;;36.13;23.08;;;;;;;2.51;77.22;101774.00;4991881;28;20034;-80
2022/03/21 06:45:02;;;;;;;39.75;24.02;;;;;;;2.57;76.46;101779.91;4990732;28;20233;-79
2022/03/21 06:47:28;;;;;;;36.20;23.40;;;;;;;2.63;76.83;101773.69;4991069;28;20065;-80
2022/03/21 06:49:53;;;;;;;40.38;25.85;;;;;;;2.57;76.60;101771.25;4990541;28;20042;-78
2022/03/21 06:52:19;;;;;;;41.97;24.15;;;;;;;2.57;76.86;101773.84;4990803;28;20446;-80
2022/03/21 06:54:48;;;;;;;40.22;25.10;;;;;;;2.61;76.76;101771.13;4995257;28;20057;-80
2022/03/21 06:57:16;;;;;;;41.90;24.83;;;;;;;2.64;77.11;101784.09;4990470;28;20475;-79
2022/03/21 06:59:42;;;;;;;39.50;24.08;;;;;;;2.72;77.01;101786.47;3954555;28;10000696;-81
2022/03/21 07:02:09;;;;;;;41.50;25.40;;;;;;;2.80;76.77;101779.34;4988879;28;20042;-79
2022/03/21 07:04:35;;;;;;;42.92;24.63;;;;;;;2.91;76.55;101779.06;4991967;28;20368;-77
2022/03/21 07:07:00;;;;;;;38.90;24.00;;;;;;;3.04;76.01;101785.66;4992632;28;20049;-80
2022/03/21 07:09:26;;;;;;;44.47;25.42;;;;;;;3.18;75.36;101783.56;4993250;28;20034;-80
2022/03/21 07:11:52;;;;;;;39.58;24.52;;;;;;;3.22;75.35;101785.16;4974961;28;20101;-80
2022/03/21 07:14:18;;;;;;;40.85;24.90;;;;;;;3.17;75.41;101781.84;4992006;28;20128;-80
2022/03/21 07:16:44;;;;;;;37.53;25.50;;;;;;;3.20;75.50;101784.34;4991529;28;20386;-80
2022/03/21 07:19:09;;;;;;;40.80;25.23;;;;;;;3.17;74.98;101781.84;4993183;28;20026;-80
2022/03/21 07:21:35;;;;;;;37.47;25.23;;;;;;;3.12;75.03;101788.94;4993476;28;20395;-80
2022/03/21 07:24:01;;;;;;;38.97;23.98;;;;;;;3.10;74.85;101780.28;4995040;28;20133;-80
2022/03/21 07:26:26;;;;;;;43.33;25.15;;;;;;;2.97;75.56;101790.19;5006359;28;20041;-79
2022/03/21 07:28:52;;;;;;;35.42;24.60;;;;;;;3.01;75.66;101785.72;5007951;28;20050;-80
2022/03/21 07:31:17;;;;;;;40.90;26.05;;;;;;;3.02;75.97;101787.44;5010645;28;20026;-80
2022/03/21 07:33:43;;;;;;;35.72;23.48;;;;;;;3.17;75.86;101782.69;5011223;28;20057;-78
2022/03/21 07:36:09;;;;;;;40.53;25.38;;;;;;;3.34;74.81;101789.19;4995000;28;20038;-79
2022/03/21 07:38:36;;;;;;;40.13;25.33;;;;;;;3.46;74.61;101784.50;4992810;28;20039;-80
2022/03/21 07:41:07;;;;;;;40.95;25.38;;;;;;;3.64;73.91;101789.19;4991421;28;21481;-80
2022/03/21 07:43:34;;;;;;;39.80;24.75;;;;;;;3.77;73.27;101794.03;4992482;28;20081;-80
2022/03/21 07:48:44;;;;;;;40.55;24.52;;;;;;;3.86;72.60;101794.63;4988911;28;20520;-79
2022/03/21 07:51:10;;;;;;;41.05;25.20;;;;;;;4.01;72.51;101798.50;4992033;28;20088;-79
2022/03/21 07:53:36;;;;;;;44.15;26.45;;;;;;;3.99;71.80;101797.72;4991895;28;20034;-80
2022/03/21 07:56:01;;;;;;;36.70;24.15;;;;;;;3.98;71.88;101793.41;4991325;28;20038;-79
2022/03/21 07:58:27;;;;;;;38.97;25.40;;;;;;;4.08;72.06;101794.81;4994928;28;20449;-80
2022/03/21 08:00:52;;;;;;;41.15;25.13;;;;;;;4.20;71.58;101794.44;4957527;28;20482;-81
2022/03/21 08:03:19;;;;;;;39.60;24.80;;;;;;;4.37;71.37;101796.50;4991350;28;20040;-80
2022/03/21 08:05:45;;;;;;;39.22;24.65;;;;;;;4.57;70.82;101808.94;4991313;28;20038;-79
2022/03/21 08:08:11;;;;;;;35.53;23.98;;;;;;;4.69;69.89;101800.72;4990949;28;20471;-79
2022/03/21 08:10:36;;;;;;;43.05;25.10;;;;;;;4.78;69.87;101803.00;4989459;28;20054;-80
2022/03/21 08:13:02;;;;;;;40.35;25.42;;;;;;;4.94;68.89;101809.44;4989169;28;20038;-81
2022/03/21 08:15:28;;;;;;;39.08;25.38;;;;;;;5.11;67.69;101809.72;4991285;28;20471;-81
2022/03/21 08:17:56;;;;;;;47.65;27.17;;;;;;;5.35;67.08;101801.00;4990997;28;20121;-81
2022/03/21 08:20:23;;;;;;;39.45;24.92;;;;;;;5.54;65.01;101805.56;4990983;28;20030;-80
2022/03/21 08:22:50;;;;;;;42.40;25.08;;;;;;;5.70;64.27;101802.34;4991492;28;20054;-80
2022/03/21 08:25:17;;;;;;;39.65;24.75;;;;;;;5.86;63.79;101802.59;4991507;28;20243;-79
2022/03/21 08:27:44;;;;;;;37.88;25.35;;;;;;;5.98;62.33;101807.41;4970481;28;20062;-81
2022/03/21 08:30:11;;;;;;;43.63;25.30;;;;;;;6.18;61.86;101803.16;4990833;28;20068;-79
2022/03/21 08:32:37;;;;;;;45.45;26.40;;;;;;;6.22;62.02;101799.50;4990622;28;20035;-80
2022/03/21 08:35:02;;;;;;;38.28;25.88;;;;;;;6.37;62.31;101804.13;4990474;28;20038;-80
2022/03/21 08:37:28;;;;;;;37.53;24.67;;;;;;;6.65;61.53;101794.25;4990782;28;20018;-81
2022/03/21 08:39:53;;;;;;;41.20;24.33;;;;;;;6.88;61.46;101794.13;4990423;28;20065;-79
2022/03/21 08:42:19;;;;;;;39.53;24.63;;;;;;;7.11;60.95;101793.16;4990553;28;20069;-80
2022/03/21 08:44:45;;;;;;;40.97;26.17;;;;;;;7.29;60.68;101787.09;4990372;28;20335;-79
2022/03/21 08:47:10;;;;;;;36.25;23.95;;;;;;;7.51;60.54;101792.22;4990368;28;20050;-80
2022/03/21 08:49:37;;;;;;;35.17;24.17;;;;;;;7.67;60.69;101790.59;4991617;28;20137;-81
2022/03/21 08:52:06;;;;;;;34.53;23.65;;;;;;;7.77;60.87;101781.41;4990579;28;20061;-80
2022/03/21 08:54:32;;;;;;;34.97;24.27;;;;;;;7.86;61.71;101781.88;4990466;28;20070;-81
2022/03/21 08:56:59;;;;;;;35.40;24.40;;;;;;;8.00;61.60;101784.72;4990571;28;20036;-79
2022/03/21 08:59:26;;;;;;;34.95;23.17;;;;;;;8.07;61.12;101780.91;4990491;28;20037;-80
2022/03/21 09:01:52;;;;;;;37.78;24.50;;;;;;;8.19;61.18;101786.41;4990398;28;20104;-80
2022/03/21 09:04:17;;;;;;;33.90;23.08;;;;;;;8.35;61.05;101781.31;4990419;28;20035;-80
2022/03/21 09:06:43;;;;;;;35.63;25.27;;;;;;;8.56;61.10;101780.22;4990588;28;20058;-79
2022/03/21 09:09:09;;;;;;;35.13;24.42;;;;;;;8.68;60.54;101777.91;4989020;28;20057;-80
2022/03/21 09:11:34;;;;;;;34.58;23.90;;;;;;;8.78;60.25;101785.28;4992071;28;20038;-79
2022/03/21 09:14:00;;;;;;;35.60;24.60;;;;;;;8.82;60.21;101775.47;4991257;28;20038;-81
2022/03/21 09:16:25;;;;;;;34.28;24.67;;;;;;;8.77;60.76;101773.06;4991171;28;20176;-80
2022/03/21 09:18:51;;;;;;;34.05;24.25;;;;;;;8.78;60.64;101774.75;4990443;28;20137;-80
2022/03/21 09:21:16;;;;;;;35.05;24.58;;;;;;;8.81;61.11;101776.38;4990682;28;20034;-80
2022/03/21 09:23:42;;;;;;;35.38;24.67;;;;;;;8.88;60.71;101767.25;4973564;28;20458;-80
2022/03/21 09:26:10;;;;;;;32.67;23.08;;;;;;;8.99;60.55;101767.56;4986226;28;20023;-80
2022/03/21 09:28:36;;;;;;;29.98;21.95;;;;;;;9.08;59.75;101772.31;4990358;28;20022;-80
2022/03/21 09:31:02;;;;;;;32.00;23.73;;;;;;;9.17;59.88;101765.75;4990313;28;20113;-82
2022/03/21 09:33:28;;;;;;;32.33;22.77;;;;;;;9.25;59.50;101759.13;4990327;28;20113;-81
2022/03/21 09:35:54;;;;;;;36.03;23.83;;;;;;;9.37;59.16;101762.91;4990161;28;20038;-82
2022/03/21 09:38:20;;;;;;;34.33;23.52;;;;;;;9.37;58.38;101757.63;4991419;28;20030;-81
2022/03/21 09:40:46;;;;;;;35.95;24.52;;;;;;;9.36;58.15;101756.81;4990772;28;20430;-81
2022/03/21 09:43:12;;;;;;;34.03;23.90;;;;;;;9.50;58.32;101768.38;4989194;28;20041;-83
2022/03/21 09:45:39;;;;;;;32.42;23.13;;;;;;;9.72;58.03;101763.66;4298895;28;10000772;-84
2022/03/21 09:48:08;;;;;;;32.97;22.75;;;;;;;9.90;57.07;101759.97;4988236;28;20119;-83
2022/03/21 09:50:36;;;;;;;34.35;22.95;;;;;;;10.01;55.90;101754.13;4970549;28;20086;-82
2022/03/21 09:53:06;;;;;;;35.22;23.33;;;;;;;10.05;56.01;101756.50;4987391;28;20027;-82
2022/03/21 09:55:32;;;;;;;33.92;22.58;;;;;;;10.05;56.03;101756.50;4987546;28;20075;-81
2022/03/21 09:57:58;;;;;;;29.15;22.27;;;;;;;9.99;55.10;101751.59;4987096;28;20739;-82
2022/03/21 10:00:25;;;;;;;34.50;23.20;;;;;;;10.03;55.60;101747.81;4991285;28;20033;-83
2022/03/21 10:02:52;;;;;;;30.17;22.38;;;;;;;10.06;55.63;101749.44;4992885;28;20975;-82
2022/03/21 10:05:33;;;;;;;36.85;23.05;;;;;;;10.07;55.18;101744.06;4977081;28;20049;-82
2022/03/21 10:08:12;;;;;;;30.40;21.58;;;;;;;10.12;54.29;101739.41;4991482;28;20089;-82
2022/03/21 10:10:38;;;;;;;32.90;22.02;;;;;;;10.21;52.81;101736.25;4990619;28;20037;-82
2022/03/21 10:13:09;;;;;;;26.15;20.10;;;;;;;10.31;52.17;101735.75;4990000;28;20034;-82
2022/03/21 10:15:35;;;;;;;;;;;;;;;10.36;51.52;101745.09;4992292;28;20109;-81
2022/03/21 10:18:08;;;;;;;25.65;19.05;;;;;;;10.44;51.73;101737.56;4991344;28;19925;-80
2022/03/21 10:20:35;;;;;;;25.23;18.60;;;;;;;10.50;51.89;101731.09;4991467;28;20041;-81
2022/03/21 10:23:24;;;;;;;25.98;19.55;;;;;;;10.54;49.78;101732.63;4995507;28;20041;-83
2022/03/21 10:25:50;;;;;;;25.63;17.95;;;;;;;10.55;49.08;101739.59;4985240;28;20491;-83
2022/03/21 10:28:33;;;;;;;20.75;16.63;;;;;;;10.61;46.99;101739.22;4992146;28;20041;-83
2022/03/21 10:31:03;;;;;;;22.70;17.02;;;;;;;10.66;46.38;101732.75;4345422;28;10001732;-82
2022/03/21 10:33:29;;;;;;;21.77;17.08;;;;;;;10.80;46.25;101724.00;5005988;28;20251;-81
2022/03/21 10:35:55;;;;;;;24.58;17.10;;;;;;;10.82;44.91;101722.13;5011775;28;20033;-80
2022/03/21 10:38:35;;;;;;;24.35;18.88;;;;;;;10.85;44.13;101721.94;5011443;28;20041;-81
2022/03/21 10:41:06;;;;;;;24.08;18.50;;;;;;;10.85;43.92;101716.66;5012715;28;20030;-81
2022/03/21 10:43:32;;;;;;;25.30;18.27;;;;;;;10.77;44.14;101718.94;4993929;28;20364;-78
2022/03/21 10:45:59;;;;;;;25.27;18.15;;;;;;;10.79;44.53;101717.03;4991829;28;20156;-80
2022/03/21 10:48:29;;;;;;;25.45;17.35;;;;;;;10.85;44.67;101716.66;5002149;28;20039;-79
2022/03/21 10:50:56;;;;;;;24.23;17.15;;;;;;;10.89;44.17;101702.34;4992130;28;20066;-79
2022/03/21 10:53:24;;;;;;;21.65;17.08;;;;;;;10.93;41.43;101703.00;4993924;28;20034;-79
2022/03/21 10:56:00;;;;;;;22.58;16.55;;;;;;;10.81;42.18;101709.00;5008357;28;20014;-80
2022/03/21 10:58:56;;;;;;;22.95;17.27;;;;;;;10.83;42.54;101707.13;5012998;28;20030;-80
2022/03/21 11:01:29;;;;;;;21.98;16.50;;;;;;;10.97;42.86;101702.72;5004238;28;20053;-80
2022/03/21 11:03:57;;;;;;;23.80;16.58;;;;;;;11.08;42.60;101692.31;5005056;28;20058;-82
2022/03/21 11:06:23;;;;;;;23.65;16.17;;;;;;;11.21;42.22;101688.94;5012301;28;20056;-79
2022/03/21 11:08:52;;;;;;;20.45;16.05;;;;;;;11.31;41.60;101687.44;4999166;28;20463;-80
2022/03/21 11:11:18;;;;;;;21.48;16.00;;;;;;;11.37;41.40;101682.59;4993773;28;20039;-80
2022/03/21 11:13:45;;;;;;;21.10;15.18;;;;;;;11.40;40.72;101676.28;4992583;28;20494;-80
2022/03/21 11:16:16;;;;;;;17.90;14.38;;;;;;;11.41;40.19;101672.69;4998225;28;20109;-81
2022/03/21 11:18:46;;;;;;;18.70;15.80;;;;;;;11.49;40.25;101675.69;5004554;28;20030;-80
2022/03/21 11:21:13;;;;;;;18.52;14.55;;;;;;;11.61;40.03;101672.25;5005147;28;20068;-81
2022/03/21 11:23:39;;;;;;;19.20;15.73;;;;;;;11.75;39.66;101666.97;5004684;28;20037;-80
2022/03/21 11:26:10;;;;;;;21.33;14.95;;;;;;;11.85;39.45;101662.78;4988189;28;20038;-80
2022/03/21 11:29:01;;;;;;;16.63;14.18;;;;;;;12.01;39.24;101656.50;4993919;28;20113;-81
2022/03/21 11:31:32;;;;;;;18.10;13.93;;;;;;;12.13;38.77;101651.25;4994508;28;20030;-80
2022/03/21 11:34:19;;;;;;;17.60;13.48;;;;;;;12.20;37.24;101641.94;4975361;28;20069;-81